Championnat de France Longue Distance (WRE) Claudon (88) - R

Date : 23/08/2026
Couleur : Orange
Distance : 6,810 km
Valeur du circuit : 13676429 point × seconde

Place Nom Licence Catégorie Club Temps min/km CN à J-15 Valeur Points Différence Nouveau CN
1 ROCHE Elana 34881 D16 4012NA 0:55:08 8'05 4010 13265080 4134 +124 4192
2 HARNIST Caroline 27540 D16 6803GE 0:55:36 8'09 4231 14114616 4100 -131 4252
3 DUFOUR Elise 31013 D16 2606AR 0:56:31 8'17 4818 16337838 4033 -785 4748
4 LE PORS Manon 41251 D16 4705NA 0:57:15 8'24 4315 14822025 3981 -334 4409
5 BONNIN Mélissa 36544 D16 3318NA 0:57:18 8'24 3851 13239738 3978 +127 3942
6 DECHAVANNE Margot 32682 D16 6911AR 0:57:31 8'26 3968 13693568 3963 -5 4031
7 RANNOU-SERINE Violette 39603 D16 3323NA 0:58:29 8'35 4496 15776464 3898 -598 4603
8 JACQUEMETTON Coraline 43743 D16 0111AR 1:02:00 9'06 3199 11900280 3676 +477 3547
9 VIGUET POUPELLOZ Ysaline 40457 D16 7311AR 1:02:27 9'10 4371 16378137 3650 -721 4401
10 OIJID Sara 39993 D16 5402GE 1:03:14 9'17 3807 14443758 3605 -202 3726
11 FAURE Adele 36170 D16 0703AR 1:03:17 9'17 2535 9625395 3602 +1067 2742
12 PERRIN Garance 36727 D16 2508BF 1:03:39 9'20 4019 15348561 3581 -438 4011
13 ROBERT Léonie 38138 D16 5703GE 1:05:13 9'34 3686 14423318 3495 -191 3694
14 JOUANILLOU Marine 42273 D16 3108OC 1:06:36 9'46 4127 16491492 3423 -704 4188
15 JANOD Maëlle 30928 D16 7305AR 1:08:21 10'02 3559 14595459 3335 -224 3588
16 PRIEUR Eva 39252 D16 7305AR 1:13:00 10'43 2506 10976280 3122 +616 2610
17 DARRIEUTORT Eva 45810 D16 0109AR 1:14:40 10'57 2969 13301120 3053 +84 2990
18 SEGRE Zoé 37188 D16 5906HF 1:14:56 11'00 3252 14620992 3042 -210 3310
19 COLLIOUD-MARICHALLOT Margot 34411 D16 0109AR 1:15:25 11'04 2911 13172275 3022 +111 2939
20 MUYARD Noémie 43520 D16 7404AR 1:15:43 11'07 3859 17531437 3010 -849 3867
21 DIOUF Héléna 41381 D16 7716IF 1:15:48 11'07 2508 11406384 3007 +499 2786
22 DEVILLE Valentine 32619 D16 3810AR 1:17:26 11'22 2916 13547736 2944 +28 2999
23 DE LENNE Léna 40401 D16 0615PZ 1:18:07 11'28 2355 11037885 2918 +563 2625
24 MANOPOULOS Mathilde 26517 D16 0504PZ 1:18:43 11'33 2583 12199509 2896 +313 2645
25 FREY Chloé 30782 D16 6803GE 1:21:55 12'01 3342 16425930 2783 -559 3307
26 BAILLET Léna 32842 D16 6013HF 1:22:04 12'03 2283 11241492 2778 +495 2496
27 LION Apolline 40385 D16 0207HF 1:26:56 12'45 2514 13113024 2622 +108 2498
28 COSSON Nina 48398 D16 6911AR 1:27:13 12'48 2282 11941706 2613 +331 2392
29 MOUGEL Albane 32885 D16 7807IF 1:28:03 12'55 2127 11236941 2589 +462 2378
30 GRAND Lauryne 47020 D16 0109AR 1:30:50 13'20 2509 3208
31 KUZU-LAGARDE Sélène 43360 D16 7512IF 1:31:31 13'26 2565 14084415 2491 -74 2508
32 OLIVIER Maïa 35045 D16 5116GE 1:32:44 13'37 3464 2458 -1006 3434
33 LEMAIRE Satine 46466 D16 5116GE 1:33:00 13'39 2665 2451 -214 2649
34 BAYLE Nora 44940 D16 0708AR 1:36:50 14'13 2105 2354 +249 2291
35 MOTHERON Ambre 42425 D16 6208HF 1:37:06 14'15 2266 2347 +81 2324
36 GRUOT Emilie 41284 D16 2105BF 1:37:40 14'20 2775 2334 -441 2731
37 KOLB Tifenn 41509 D16 6803GE 1:39:58 14'40 2956 2280 -676 2924
38 DOLLET Hannah 35282 D16 0615PZ 1:49:10 16'01 2020 2088 +68 2003
39 LEBON Oriane 39923 D16 0111AR 1:52:05 16'27 2145 2034 -111 2133
40 SCHNEIDER Rose 33692 D16 5116GE 1:52:51 16'34 2398 2020 -378 2365
41 SCHOULLER Loane 27765 D16 5703GE 1:56:53 17'09 2245 1950 -295 2245
42 RODET-LEFEBRE Camille 48474 D16 0111AR 2:02:35 18'00 1967 1859 -108 1847
43 DUBRULLE Pauline 45200 D16 6208HF 2:05:04 18'21 2748 1823 -925 2580
44 PARISOT Morgane 40388 D16 0207HF 2:08:26 18'51 1999 1775 -224 1986
45 BADOR Eloïse 35431 D16 0207HF 2:29:46 21'59 1946 1522 -424 1991
SOLBES-WILMET Agathe 36484 D16 1705NA pm None 3029 0 3178